Time;durP1;ratioP1;P1;durP2;ratioP2;P2;SDS_P1;SDS_P2;PMS_P1;PMS_P2;Temp;Humidity;BMP_temperature;BMP_pressure;BME280_temperature;BME280_humidity;BME280_pressure;Samples;Min_cycle;Max_cycle;Signal;HPM_P1;HPM_P2
2023/03/01 00:00:06;;;;;;;5.22;2.33;;;;;;;5.41;100.00;95121.00;5144309;27;20497;-77
2023/03/01 00:02:35;;;;;;;4.43;2.88;;;;;;;5.34;100.00;95113.25;5131375;27;20209;-76
2023/03/01 00:05:01;;;;;;;4.53;2.13;;;;;;;5.34;100.00;95104.41;5130671;27;20220;-76
2023/03/01 00:07:28;;;;;;;2.63;1.63;;;;;;;5.35;100.00;95109.50;5144205;27;20220;-74
2023/03/01 00:09:55;;;;;;;3.60;2.15;;;;;;;5.21;100.00;95091.63;5144838;27;20273;-76
2023/03/01 00:12:22;;;;;;;3.40;2.33;;;;;;;5.29;100.00;95096.41;5139138;27;20276;-73
2023/03/01 00:14:48;;;;;;;2.60;1.42;;;;;;;5.28;100.00;95095.59;5136905;27;20264;-73
2023/03/01 00:17:15;;;;;;;1.85;1.70;;;;;;;5.30;100.00;95092.63;5143982;27;20201;-76
2023/03/01 00:19:43;;;;;;;2.50;1.80;;;;;;;5.31;100.00;95089.69;5144973;27;20220;-76
2023/03/01 00:22:10;;;;;;;3.53;1.80;;;;;;;5.28;100.00;95089.44;5139529;27;20249;-76
2023/03/01 00:24:37;;;;;;;2.72;2.00;;;;;;;5.23;100.00;95086.78;5137079;27;20246;-75
2023/03/01 00:27:04;;;;;;;2.83;1.85;;;;;;;5.24;100.00;95072.28;5138671;27;20232;-76
2023/03/01 00:29:30;;;;;;;3.92;2.60;;;;;;;5.16;100.00;95075.59;5137327;27;20201;-78
2023/03/01 00:31:57;;;;;;;3.28;2.22;;;;;;;5.20;100.00;95060.47;5138519;27;20604;-75
2023/03/01 00:34:24;;;;;;;2.45;1.63;;;;;;;5.20;100.00;95065.84;5147302;27;20257;-76
2023/03/01 00:36:52;;;;;;;4.65;2.63;;;;;;;5.16;100.00;95054.09;5131088;27;20193;-76
2023/03/01 00:39:19;;;;;;;1.77;1.55;;;;;;;5.15;100.00;95063.25;5126111;27;20204;-74
2023/03/01 00:41:46;;;;;;;4.13;2.45;;;;;;;4.93;100.00;95034.94;5130960;27;20209;-76
2023/03/01 00:44:13;;;;;;;2.00;1.52;;;;;;;5.07;100.00;95053.09;5131597;27;20205;-77
2023/03/01 00:46:39;;;;;;;3.40;2.33;;;;;;;5.07;100.00;95061.13;5143444;27;20247;-72
2023/03/01 00:49:06;;;;;;;2.72;1.83;;;;;;;5.11;100.00;95065.69;5144257;27;20200;-76
2023/03/01 00:51:34;;;;;;;1.92;1.48;;;;;;;5.10;100.00;95061.38;5138712;27;20252;-74
2023/03/01 00:54:03;;;;;;;2.28;1.40;;;;;;;5.11;100.00;95057.63;5137349;27;20638;-74
2023/03/01 00:56:31;;;;;;;2.15;1.80;;;;;;;5.09;100.00;95048.25;5142547;27;20209;-75
2023/03/01 00:58:57;;;;;;;4.25;2.33;;;;;;;5.12;100.00;95058.44;5144537;27;20229;-77
2023/03/01 01:01:27;;;;;;;2.83;1.40;;;;;;;5.08;100.00;95057.38;5130999;27;20209;-77
2023/03/01 01:03:55;;;;;;;3.47;2.13;;;;;;;5.13;100.00;95065.41;5129993;27;20690;-77
2023/03/01 01:06:24;;;;;;;1.58;1.15;;;;;;;5.11;100.00;95065.69;5139907;27;20224;-77
2023/03/01 01:08:52;;;;;;;4.05;2.25;;;;;;;5.11;100.00;95056.81;5136502;27;20563;-76
2023/03/01 01:11:21;;;;;;;2.60;1.70;;;;;;;5.04;100.00;95056.34;5140201;27;20197;-77
2023/03/01 01:13:48;;;;;;;1.67;1.30;;;;;;;5.06;100.00;95054.97;5143604;27;20233;-76
2023/03/01 01:16:17;;;;;;;2.53;1.30;;;;;;;5.07;100.00;95051.19;5140692;27;20261;-75
2023/03/01 01:18:44;;;;;;;3.83;1.92;;;;;;;5.07;100.00;95050.41;5133366;27;20302;-78
2023/03/01 01:21:14;;;;;;;1.35;1.10;;;;;;;5.03;100.00;95049.38;5130001;27;20197;-77
2023/03/01 01:23:41;;;;;;;2.10;1.60;;;;;;;5.06;100.00;95051.50;5144197;27;20196;-75
2023/03/01 01:26:11;;;;;;;2.42;1.65;;;;;;;5.05;100.00;95055.28;5129244;27;20269;-76
2023/03/01 01:28:39;;;;;;;2.13;1.67;;;;;;;5.04;100.00;95051.00;5136772;27;20242;-77
2023/03/01 01:31:06;;;;;;;2.20;1.42;;;;;;;5.02;100.00;95047.78;5136555;27;20720;-76
2023/03/01 01:33:34;;;;;;;4.32;1.67;;;;;;;4.99;100.00;95049.94;5147486;27;20306;-77
2023/03/01 01:36:01;;;;;;;1.67;1.15;;;;;;;5.03;100.00;95054.75;5136211;27;20654;-76
2023/03/01 01:38:28;;;;;;;2.15;1.65;;;;;;;5.00;100.00;95066.84;5129835;27;20207;-76
2023/03/01 01:40:54;;;;;;;2.03;1.23;;;;;;;5.04;100.00;95062.53;5143812;27;20269;-74
2023/03/01 01:43:24;;;;;;;2.88;2.30;;;;;;;4.98;100.00;95059.06;5129873;27;20271;-74
2023/03/01 01:45:56;;;;;;;2.85;2.30;;;;;;;4.99;100.00;95063.38;5129560;27;20236;-74
2023/03/01 01:48:40;;;;;;;4.15;2.60;;;;;;;4.96;100.00;95065.81;5137898;27;20512;-77
2023/03/01 01:51:10;;;;;;;2.70;2.13;;;;;;;4.97;100.00;95064.72;5136448;27;20200;-76
2023/03/01 01:53:39;;;;;;;1.77;1.50;;;;;;;4.98;100.00;95053.72;5138666;27;20212;-76
2023/03/01 01:56:10;;;;;;;3.10;1.27;;;;;;;4.99;100.00;95060.69;5143604;27;20197;-77
2023/03/01 01:58:38;;;;;;;1.77;1.20;;;;;;;5.00;100.00;95056.91;5129716;27;20225;-75
2023/03/01 02:01:06;;;;;;;1.65;1.20;;;;;;;4.96;100.00;95050.50;5136012;27;20200;-76
2023/03/01 02:03:41;;;;;;;3.13;1.98;;;;;;;5.05;100.00;95052.59;5136478;27;20675;-76
2023/03/01 02:06:14;;;;;;;2.90;2.40;;;;;;;4.94;100.00;95030.38;5137364;27;20215;-74
2023/03/01 02:08:44;;;;;;;2.92;2.53;;;;;;;5.07;100.00;95050.41;5136513;27;20196;-76
2023/03/01 02:11:14;;;;;;;2.22;1.98;;;;;;;5.10;100.00;95039.09;5140285;27;20283;-74
2023/03/01 02:13:42;;;;;;;2.78;2.17;;;;;;;5.12;99.70;95031.56;5143638;27;20260;-76
2023/03/01 02:16:13;;;;;;;2.75;2.55;;;;;;;5.06;99.25;95030.03;5129343;27;20254;-79
2023/03/01 02:18:42;;;;;;;1.30;1.20;;;;;;;5.10;99.08;95044.47;5142740;27;20988;-77
2023/03/01 02:21:27;;;;;;;1.92;1.05;;;;;;;5.07;98.90;95029.72;5140304;27;20441;-77
2023/03/01 02:23:55;;;;;;;0.77;0.77;;;;;;;5.10;98.45;95044.47;5135981;27;20233;-77
2023/03/01 02:26:30;;;;;;;1.38;0.93;;;;;;;5.09;98.45;95048.25;5135523;27;20741;-76
2023/03/01 02:28:58;;;;;;;1.23;1.02;;;;;;;5.09;98.47;95034.81;5129052;28;20605;-76
2023/03/01 02:31:44;;;;;;;1.88;1.30;;;;;;;5.08;98.66;95041.25;5143489;27;20204;-76
2023/03/01 02:34:13;;;;;;;2.53;1.40;;;;;;;5.09;98.64;95048.25;5133036;27;20208;-76
2023/03/01 02:36:43;;;;;;;4.65;2.45;;;;;;;5.09;98.87;95048.25;5142912;27;20209;-75
2023/03/01 02:39:17;;;;;;;2.15;1.30;;;;;;;5.12;98.68;95063.78;5146106;27;20204;-77
2023/03/01 02:41:50;;;;;;;4.68;2.53;;;;;;;5.14;98.54;95056.25;5141209;27;20295;-77
2023/03/01 02:44:18;;;;;;;2.80;1.33;;;;;;;5.12;98.67;95063.78;5139670;27;20189;-74
2023/03/01 02:46:48;;;;;;;3.28;2.35;;;;;;;5.11;98.89;95059.50;5144764;27;20229;-76
2023/03/01 02:49:25;;;;;;;4.13;2.50;;;;;;;5.11;99.04;95051.44;5146878;27;20363;-72
2023/03/01 02:52:02;;;;;;;3.17;2.00;;;;;;;5.05;99.41;95049.91;5132670;27;20207;-75
2023/03/01 02:54:34;;;;;;;2.67;1.98;;;;;;;5.04;99.88;95051.00;5138666;27;20279;-75
2023/03/01 02:57:02;;;;;;;3.47;2.15;;;;;;;5.02;100.00;95053.16;5140093;27;20242;-72
2023/03/01 02:59:34;;;;;;;2.85;1.60;;;;;;;5.02;100.00;95053.16;5146662;27;20667;-75
2023/03/01 03:02:01;;;;;;;2.05;1.42;;;;;;;4.99;100.00;95060.69;5137104;27;20602;-76
2023/03/01 03:04:28;;;;;;;2.90;1.88;;;;;;;4.98;100.00;95052.91;5140697;27;20204;-76
2023/03/01 03:06:55;;;;;;;2.53;1.83;;;;;;;4.98;100.00;95047.53;5139482;27;20467;-75
2023/03/01 03:09:22;;;;;;;3.80;1.92;;;;;;;4.89;100.00;95044.66;5153075;27;20456;-76
2023/03/01 03:11:49;;;;;;;4.85;2.33;;;;;;;4.87;100.00;95046.84;5137883;27;20204;-75
2023/03/01 03:14:17;;;;;;;4.03;2.05;;;;;;;4.92;100.00;95054.81;5132382;27;20862;-75
2023/03/01 03:16:48;;;;;;;2.05;1.75;;;;;;;4.95;100.00;95066.88;5136032;27;20209;-75
2023/03/01 03:19:16;;;;;;;1.70;1.27;;;;;;;4.91;100.00;95053.25;5143942;27;20637;-76
2023/03/01 03:21:43;;;;;;;3.63;2.33;;;;;;;4.86;100.00;95045.22;5146688;27;20208;-76
2023/03/01 03:24:10;;;;;;;4.70;2.90;;;;;;;4.93;100.00;95048.38;5141994;27;20224;-75
2023/03/01 03:26:37;;;;;;;1.90;1.52;;;;;;;4.94;100.00;95052.66;5139718;27;20273;-75
2023/03/01 03:29:03;;;;;;;3.33;2.22;;;;;;;4.92;100.00;95057.50;5142468;27;20265;-76
2023/03/01 03:31:30;;;;;;;2.45;1.90;;;;;;;4.83;100.00;95051.16;5132175;27;20201;-76
2023/03/01 03:33:59;;;;;;;3.97;2.90;;;;;;;4.86;100.00;95060.53;5131818;27;20664;-76
2023/03/01 03:36:25;;;;;;;3.00;1.85;;;;;;;4.87;100.00;95048.72;5146284;27;20208;-73
2023/03/01 03:38:52;;;;;;;2.85;2.10;;;;;;;4.91;100.00;95058.63;5131754;27;20253;-76
2023/03/01 03:41:19;;;;;;;3.38;2.15;;;;;;;4.87;100.00;95054.06;5145631;27;20722;-74
2023/03/01 03:43:46;;;;;;;4.55;2.78;;;;;;;4.88;100.00;95053.81;5143513;27;20208;-73
2023/03/01 03:46:13;;;;;;;5.40;3.40;;;;;;;4.87;100.00;95062.94;5138732;27;20204;-76
2023/03/01 03:48:43;;;;;;;3.38;2.15;;;;;;;4.86;100.00;95058.66;5141103;27;20254;-75
2023/03/01 03:51:14;;;;;;;4.80;3.45;;;;;;;4.88;100.00;95067.22;5144823;27;20185;-76
2023/03/01 03:53:41;;;;;;;3.40;2.33;;;;;;;4.84;100.00;95066.16;5144138;27;20196;-75
2023/03/01 03:56:08;;;;;;;3.70;2.75;;;;;;;4.82;100.00;95064.84;5138153;27;20193;-73
2023/03/01 03:58:35;;;;;;;2.45;1.45;;;;;;;4.84;100.00;95058.13;5139182;27;20201;-74
2023/03/01 04:01:02;;;;;;;1.88;1.58;;;;;;;4.93;100.00;95061.00;5131444;27;20201;-74
2023/03/01 04:03:31;;;;;;;3.38;1.75;;;;;;;4.82;100.00;95057.59;5145318;27;20204;-76
2023/03/01 04:05:59;;;;;;;2.53;1.95;;;;;;;4.83;100.00;95056.50;5152643;27;20253;-76
2023/03/01 04:08:28;;;;;;;3.50;1.90;;;;;;;4.84;100.00;95062.69;5138462;27;20456;-77
2023/03/01 04:11:00;;;;;;;2.28;1.30;;;;;;;4.79;100.00;95068.88;5144354;27;20265;-76
2023/03/01 04:13:27;;;;;;;2.47;1.45;;;;;;;4.82;100.00;95076.38;5144114;27;20280;-74
2023/03/01 04:15:55;;;;;;;2.20;1.35;;;;;;;4.77;100.00;95065.72;5140462;27;20230;-77
2023/03/01 04:18:24;;;;;;;3.53;1.55;;;;;;;4.79;100.00;95049.28;5138390;27;20217;-75
2023/03/01 04:20:55;;;;;;;1.85;1.42;;;;;;;4.76;100.00;95065.97;5143347;27;20208;-77
2023/03/01 04:23:22;;;;;;;2.50;1.50;;;;;;;4.78;100.00;95064.63;5145325;27;20196;-76
2023/03/01 04:25:54;;;;;;;2.55;1.42;;;;;;;4.82;100.00;95065.66;5140509;27;20204;-74
2023/03/01 04:28:21;;;;;;;1.85;1.48;;;;;;;4.81;100.00;95064.03;5138516;27;20299;-77
2023/03/01 04:30:48;;;;;;;2.80;1.75;;;;;;;4.84;100.00;95073.41;5140111;27;20197;-77
2023/03/01 04:33:14;;;;;;;4.22;1.58;;;;;;;4.76;100.00;95066.78;5146302;27;20605;-76
2023/03/01 04:35:41;;;;;;;4.32;2.40;;;;;;;4.78;100.00;95070.00;5140039;27;20247;-75
2023/03/01 04:38:08;;;;;;;3.80;2.03;;;;;;;4.77;100.00;95067.59;5134086;27;20280;-75
2023/03/01 04:40:35;;;;;;;5.18;2.78;;;;;;;4.78;100.00;95059.25;5130842;27;20209;-77
2023/03/01 04:43:04;;;;;;;2.97;1.67;;;;;;;4.76;100.00;95066.78;5136195;27;20292;-74
2023/03/01 04:45:34;;;;;;;3.38;1.63;;;;;;;4.78;100.00;95056.56;5142999;27;20227;-74
2023/03/01 04:48:01;;;;;;;2.78;1.85;;;;;;;4.78;100.00;95059.25;5144254;27;20219;-75
2023/03/01 04:50:27;;;;;;;5.10;2.90;;;;;;;4.80;100.00;95057.06;5137788;27;20341;-75
2023/03/01 04:52:58;;;;;;;3.15;2.10;;;;;;;4.78;100.00;95064.63;5130752;27;20207;-77
2023/03/01 04:55:25;;;;;;;3.92;1.98;;;;;;;4.81;100.00;95047.13;5129874;27;20284;-74
2023/03/01 04:57:52;;;;;;;1.80;1.58;;;;;;;4.78;100.00;95053.88;5129943;27;20196;-76
2023/03/01 05:00:22;;;;;;;3.58;2.22;;;;;;;4.81;100.00;95057.88;5136004;27;20196;-76
2023/03/01 05:02:53;;;;;;;1.88;1.58;;;;;;;4.84;100.00;95062.69;5137608;27;20208;-75
2023/03/01 05:05:21;;;;;;;1.33;1.02;;;;;;;4.82;100.00;95057.59;5135813;27;20221;-79
2023/03/01 05:07:48;;;;;;;2.65;1.38;;;;;;;4.80;100.00;95057.06;5137451;27;20223;-75
2023/03/01 05:10:15;;;;;;;3.22;1.92;;;;;;;4.80;100.00;95057.06;5133572;27;20205;-77
2023/03/01 05:12:42;;;;;;;2.92;1.52;;;;;;;4.86;100.00;95057.84;5139595;27;20196;-77
2023/03/01 05:15:09;;;;;;;2.28;1.42;;;;;;;4.82;100.00;95062.16;5150852;27;20277;-80
2023/03/01 05:17:37;;;;;;;1.10;1.00;;;;;;;4.84;100.00;95057.31;5143304;27;20345;-72
2023/03/01 05:20:08;;;;;;;2.80;1.65;;;;;;;4.86;100.00;95063.22;5135380;27;20205;-77
2023/03/01 05:22:36;;;;;;;3.25;2.13;;;;;;;4.86;100.00;95055.97;5140576;27;20216;-77
2023/03/01 05:25:03;;;;;;;4.43;2.45;;;;;;;4.82;100.00;95064.84;5134398;27;20244;-78
2023/03/01 05:27:30;;;;;;;1.75;1.35;;;;;;;4.90;100.00;95062.38;5139494;27;20243;-78
2023/03/01 05:29:57;;;;;;;3.20;2.13;;;;;;;4.88;100.00;95074.47;5133569;27;20258;-79
2023/03/01 05:32:24;;;;;;;5.45;2.08;;;;;;;4.90;100.00;95067.75;5141597;27;20218;-74
2023/03/01 05:34:54;;;;;;;3.63;2.42;;;;;;;4.95;100.00;95058.84;5142673;27;20254;-75
2023/03/01 05:37:21;;;;;;;1.05;0.90;;;;;;;4.87;99.21;95056.75;5130329;27;20193;-75
2023/03/01 05:39:50;;;;;;;2.65;1.50;;;;;;;4.96;98.87;95063.91;5143142;27;20193;-77
2023/03/01 05:42:16;;;;;;;4.80;1.98;;;;;;;5.15;99.12;95060.56;5139300;27;20207;-78
2023/03/01 05:44:43;;;;;;;2.78;1.67;;;;;;;5.17;97.56;95058.38;5147511;27;20200;-78
2023/03/01 05:47:10;;;;;;;2.40;1.85;;;;;;;5.12;98.07;95069.16;5137226;27;20751;-76
2023/03/01 05:49:37;;;;;;;2.13;1.45;;;;;;;5.06;98.77;95059.56;5129290;27;20261;-74
2023/03/01 05:52:05;;;;;;;1.80;1.08;;;;;;;5.02;98.49;95074.63;5134570;27;20292;-76
2023/03/01 05:54:33;;;;;;;3.78;2.17;;;;;;;4.99;98.69;95076.78;5129683;27;20213;-77
2023/03/01 05:56:59;;;;;;;1.55;1.15;;;;;;;4.93;98.55;95069.84;5128888;27;20253;-78
2023/03/01 05:59:26;;;;;;;2.70;1.90;;;;;;;4.94;98.40;95082.19;5143626;27;20201;-76
2023/03/01 06:01:53;;;;;;;1.58;1.02;;;;;;;4.99;98.13;95076.78;5124676;27;20200;-78
2023/03/01 06:04:20;;;;;;;1.10;1.00;;;;;;;5.01;98.00;95084.56;5136331;27;20204;-71
2023/03/01 06:06:47;;;;;;;2.60;1.52;;;;;;;5.09;97.51;95086.63;5149720;27;20204;-78
2023/03/01 06:09:15;;;;;;;1.85;1.38;;;;;;;5.13;97.09;95092.25;5143124;27;20257;-79
2023/03/01 06:11:42;;;;;;;1.42;1.17;;;;;;;5.14;97.16;95091.16;5143819;27;20260;-79
2023/03/01 06:14:10;;;;;;;2.10;1.33;;;;;;;5.15;96.97;95090.09;5141424;27;20239;-76
2023/03/01 06:16:37;;;;;;;2.45;1.80;;;;;;;5.05;97.30;95103.59;5129467;27;20235;-78
2023/03/01 06:19:04;;;;;;;8.55;2.08;;;;;;;5.07;97.98;95104.09;5137183;27;20608;-79
2023/03/01 06:21:30;;;;;;;1.58;1.13;;;;;;;5.06;98.13;95102.53;5136244;27;20258;-74
2023/03/01 06:23:57;;;;;;;1.85;1.38;;;;;;;5.06;98.46;95102.53;5141039;27;20204;-72
2023/03/01 06:26:25;;;;;;;1.85;1.30;;;;;;;5.10;98.25;95103.53;5135313;27;20208;-77
2023/03/01 06:28:52;;;;;;;1.05;0.82;;;;;;;5.16;98.16;95105.91;5128251;28;20236;-79
2023/03/01 06:31:19;;;;;;;3.22;1.70;;;;;;;5.12;98.23;95096.81;5142679;27;20207;-74
2023/03/01 06:33:45;;;;;;;2.17;1.60;;;;;;;5.15;98.24;95095.47;5129376;28;20196;-77
2023/03/01 06:36:12;;;;;;;4.53;1.50;;;;;;;5.27;98.01;95098.56;5145651;27;20276;-78
2023/03/01 06:38:40;;;;;;;2.22;1.75;;;;;;;5.24;98.04;95099.13;5141407;27;20254;-77
2023/03/01 06:41:07;;;;;;;2.03;1.45;;;;;;;5.35;97.77;95106.81;5145754;27;20239;-77
2023/03/01 06:43:35;;;;;;;2.15;1.55;;;;;;;5.35;97.46;95098.75;5141379;27;20287;-75
2023/03/01 06:46:06;;;;;;;1.85;1.13;;;;;;;5.30;97.73;95098.00;5142731;27;20667;-77
2023/03/01 06:48:33;;;;;;;1.90;1.42;;;;;;;5.34;97.85;95109.78;5139724;27;20245;-74
2023/03/01 06:51:01;;;;;;;2.17;1.20;;;;;;;5.29;97.83;95115.22;5136517;27;20449;-77
2023/03/01 06:53:28;;;;;;;2.45;1.40;;;;;;;5.31;97.74;95105.78;5139729;27;20283;-76
2023/03/01 06:55:56;;;;;;;2.63;1.63;;;;;;;5.23;97.73;95108.28;5133290;27;20196;-77
2023/03/01 06:58:22;;;;;;;1.27;0.95;;;;;;;5.28;97.27;95103.66;5137835;27;20637;-77
2023/03/01 07:00:51;;;;;;;4.90;2.10;;;;;;;5.21;97.38;95105.06;5145947;27;20188;-78
2023/03/01 07:03:17;;;;;;;2.22;1.63;;;;;;;5.22;97.42;95103.97;5139869;27;20201;-73
2023/03/01 07:05:45;;;;;;;1.67;1.33;;;;;;;5.32;96.79;95106.59;5136458;27;20559;-78
2023/03/01 07:08:12;;;;;;;2.42;1.85;;;;;;;5.36;96.57;95091.50;5136427;27;20225;-73
2023/03/01 07:10:38;;;;;;;3.38;1.88;;;;;;;5.24;96.64;95108.00;5133666;27;20544;-75
2023/03/01 07:13:06;;;;;;;1.85;1.30;;;;;;;5.23;96.95;95113.63;5137050;27;20209;-77
2023/03/01 07:15:33;;;;;;;5.72;1.52;;;;;;;5.31;96.98;95102.31;5142167;27;20225;-74
2023/03/01 07:18:01;;;;;;;3.35;1.50;;;;;;;5.22;96.82;95099.41;5140299;27;20759;-73
2023/03/01 07:20:28;;;;;;;3.88;1.25;;;;;;;5.35;96.36;95116.75;5139843;27;20205;-77
2023/03/01 07:22:58;;;;;;;2.47;1.13;;;;;;;5.36;96.11;95102.25;5134049;27;20205;-77
2023/03/01 07:25:25;;;;;;;0.98;0.73;;;;;;;5.44;95.25;95088.22;5136803;27;20617;-74
2023/03/01 07:27:52;;;;;;;2.65;1.27;;;;;;;5.49;94.87;95096.19;5153015;27;20269;-75
2023/03/01 07:30:20;;;;;;;1.45;1.13;;;;;;;5.60;94.33;95092.31;5152645;27;20204;-74
2023/03/01 07:32:47;;;;;;;1.08;0.85;;;;;;;5.67;93.69;95090.13;5152593;27;20200;-74
2023/03/01 07:35:15;;;;;;;1.67;1.17;;;;;;;5.77;93.52;95085.69;5143052;27;20374;-75
2023/03/01 07:37:42;;;;;;;1.80;1.63;;;;;;;5.81;93.24;95087.53;5133315;27;20287;-76
2023/03/01 07:40:11;;;;;;;1.60;1.05;;;;;;;5.88;93.11;95081.81;5144955;27;20731;-73
2023/03/01 07:42:37;;;;;;;2.65;1.48;;;;;;;6.20;91.76;95084.69;5147565;27;20208;-76
2023/03/01 07:45:05;;;;;;;3.53;1.95;;;;;;;6.16;90.70;95088.22;5144138;27;20242;-76
2023/03/01 07:47:33;;;;;;;3.55;2.08;;;;;;;6.21;91.24;95091.66;5146787;27;20220;-74
2023/03/01 07:50:00;;;;;;;2.53;1.45;;;;;;;6.23;91.03;95084.13;5141870;27;20200;-73
2023/03/01 07:52:29;;;;;;;2.72;2.28;;;;;;;6.17;90.54;95096.00;5138013;27;20728;-77
2023/03/01 07:54:56;;;;;;;5.03;2.33;;;;;;;6.11;90.38;95086.44;5151049;27;20197;-79
2023/03/01 07:57:22;;;;;;;2.22;1.20;;;;;;;6.04;90.31;95085.97;5137133;27;20660;-81
2023/03/01 07:59:49;;;;;;;1.80;1.10;;;;;;;6.08;90.73;95076.22;5132434;27;20201;-78
2023/03/01 08:02:16;;;;;;;6.22;1.60;;;;;;;6.31;89.32;95075.38;5149645;27;20245;-81
2023/03/01 08:04:43;;;;;;;1.65;1.10;;;;;;;6.27;89.34;95077.06;5143118;27;20660;-81
2023/03/01 08:07:10;;;;;;;3.13;1.30;;;;;;;6.05;89.71;95079.50;5146380;27;20205;-80
2023/03/01 08:09:38;;;;;;;1.23;0.80;;;;;;;5.99;90.24;95086.03;5137908;27;20633;-75
2023/03/01 08:12:06;;;;;;;2.03;1.27;;;;;;;6.19;89.51;95072.31;5140154;27;20193;-77
2023/03/01 08:14:33;;;;;;;1.95;1.42;;;;;;;6.23;89.01;95070.66;5142815;27;20228;-78
2023/03/01 08:17:02;;;;;;;1.98;1.35;;;;;;;6.40;88.44;95062.09;5138061;27;20748;-77
2023/03/01 08:19:30;;;;;;;2.08;1.08;;;;;;;6.39;88.03;95055.94;5131709;27;20201;-74
2023/03/01 08:21:58;;;;;;;1.20;1.10;;;;;;;6.69;87.03;95070.03;5146439;27;20192;-76
2023/03/01 08:24:25;;;;;;;2.90;2.00;;;;;;;6.69;85.28;95056.56;5139209;27;20189;-78
2023/03/01 08:26:53;;;;;;;5.20;1.90;;;;;;;6.57;85.43;95069.66;5137566;27;20211;-80
2023/03/01 08:29:21;;;;;;;2.75;1.55;;;;;;;6.52;85.63;95064.34;5134255;27;20224;-79
2023/03/01 08:31:49;;;;;;;1.38;1.23;;;;;;;6.51;85.67;95068.13;5137294;27;20211;-76
2023/03/01 08:34:17;;;;;;;1.73;1.27;;;;;;;6.49;86.45;95064.94;5148699;27;20193;-79
2023/03/01 08:36:46;;;;;;;1.48;1.38;;;;;;;6.61;85.87;95068.00;5145209;27;20204;-78
2023/03/01 08:39:14;;;;;;;1.35;0.90;;;;;;;6.62;85.81;95059.63;5131803;27;20280;-78
2023/03/01 08:41:41;;;;;;;2.42;1.58;;;;;;;6.78;84.68;95054.81;5131394;27;20659;-79
2023/03/01 08:44:11;;;;;;;6.65;0.95;;;;;;;6.77;84.87;95069.38;5145268;27;20204;-76
2023/03/01 08:46:41;;;;;;;1.50;1.40;;;;;;;6.89;84.43;95052.75;5138907;27;20184;-77
2023/03/01 08:49:08;;;;;;;2.58;1.70;;;;;;;7.03;82.97;95057.09;5135587;27;20229;-77
2023/03/01 08:51:37;;;;;;;2.58;1.73;;;;;;;6.91;83.20;95066.72;5131249;27;20201;-79
2023/03/01 08:54:04;;;;;;;2.45;1.67;;;;;;;6.87;83.04;95066.50;5130399;27;20663;-74
2023/03/01 08:56:30;;;;;;;2.35;1.15;;;;;;;7.19;82.47;95067.63;5140128;27;20249;-75
2023/03/01 08:58:57;;;;;;;3.47;1.38;;;;;;;7.45;81.10;95060.69;5134737;27;20284;-78
2023/03/01 09:01:26;;;;;;;4.22;1.55;;;;;;;7.38;81.07;95065.69;5130628;27;20200;-76
2023/03/01 09:03:52;;;;;;;4.53;1.30;;;;;;;7.45;81.53;95061.50;5144394;27;20205;-79
2023/03/01 09:06:19;;;;;;;2.10;1.42;;;;;;;7.18;82.24;95057.94;5140648;27;20997;-78
2023/03/01 09:08:49;;;;;;;4.95;1.92;;;;;;;7.52;81.63;95061.09;5137640;27;20939;-77
2023/03/01 09:11:19;;;;;;;1.40;1.30;;;;;;;7.43;80.61;95073.66;5140746;27;20252;-75
2023/03/01 09:13:47;;;;;;;2.08;1.50;;;;;;;7.44;81.55;95070.69;5130325;27;20232;-76
2023/03/01 09:16:16;;;;;;;3.08;1.90;;;;;;;7.25;81.50;95077.22;5142499;27;20228;-76
2023/03/01 09:18:44;;;;;;;2.50;2.00;;;;;;;7.19;82.32;95067.63;5137756;27;20196;-78
2023/03/01 09:21:14;;;;;;;3.45;1.63;;;;;;;7.59;80.95;95058.81;5138558;27;20723;-80
2023/03/01 09:23:43;;;;;;;2.47;1.50;;;;;;;7.95;79.23;95063.53;5137142;27;20694;-78
2023/03/01 09:26:12;;;;;;;1.45;1.35;;;;;;;7.92;78.54;95050.66;5138301;27;20205;-75
2023/03/01 09:28:40;;;;;;;1.40;1.30;;;;;;;7.60;80.06;95063.13;5151530;27;20785;-79
2023/03/01 09:31:07;;;;;;;1.65;1.30;;;;;;;7.48;80.76;95062.81;5137296;27;20203;-76
2023/03/01 09:33:34;;;;;;;4.55;1.90;;;;;;;7.38;81.50;95054.91;5136827;27;20450;-80
2023/03/01 09:36:05;;;;;;;1.60;1.20;;;;;;;7.27;81.75;95056.16;5136858;27;20215;-77
2023/03/01 09:38:32;;;;;;;3.53;1.63;;;;;;;7.29;81.30;95067.44;5130187;27;20717;-80
2023/03/01 09:41:00;;;;;;;1.20;0.88;;;;;;;7.40;81.05;95052.69;5143700;27;20335;-77
2023/03/01 09:43:35;;;;;;;2.83;1.13;;;;;;;7.23;81.62;95050.59;5138490;27;20200;-78
2023/03/01 09:46:07;;;;;;;1.13;0.90;;;;;;;6.98;82.84;95048.28;5136863;27;20615;-74
2023/03/01 09:48:42;;;;;;;1.33;1.17;;;;;;;6.98;82.65;95053.69;5139743;27;20262;-77
2023/03/01 09:51:18;;;;;;;1.40;1.05;;;;;;;7.13;82.90;95040.75;5143888;27;20188;-75
2023/03/01 09:53:45;;;;;;;1.52;1.00;;;;;;;7.46;81.32;95056.91;5144000;27;20256;-80
2023/03/01 09:56:21;;;;;;;2.65;1.05;;;;;;;7.21;82.27;95043.88;5130162;27;20324;-78
2023/03/01 09:58:54;;;;;;;1.40;0.88;;;;;;;7.23;81.94;95031.72;5131159;27;20197;-79
2023/03/01 10:01:35;;;;;;;2.70;1.13;;;;;;;7.32;81.80;95029.13;5141117;27;20200;-74
2023/03/01 10:04:13;;;;;;;1.83;1.05;;;;;;;7.24;82.06;95029.84;5147216;27;20634;-78
2023/03/01 10:06:50;;;;;;;2.70;1.30;;;;;;;7.17;82.53;95042.88;5137141;27;20250;-78
2023/03/01 10:09:18;;;;;;;4.55;2.10;;;;;;;7.43;82.41;95019.75;5137723;27;20563;-76
2023/03/01 10:11:49;;;;;;;2.53;1.48;;;;;;;7.30;81.69;95028.63;5136977;27;20266;-77
2023/03/01 10:14:28;;;;;;;3.15;1.70;;;;;;;7.36;81.21;95013.97;5141504;27;20244;-76
2023/03/01 10:16:58;;;;;;;3.60;2.00;;;;;;;7.37;82.24;95020.97;5143646;27;20258;-78
2023/03/01 10:19:31;;;;;;;1.88;1.42;;;;;;;7.52;81.42;95017.97;5129866;27;20216;-80
2023/03/01 10:22:04;;;;;;;2.55;1.15;;;;;;;7.38;81.79;95015.25;5134499;27;20404;-76
2023/03/01 10:24:35;;;;;;;2.15;1.10;;;;;;;7.36;82.33;95019.38;5136394;27;20204;-75
2023/03/01 10:27:08;;;;;;;1.83;1.15;;;;;;;7.52;81.61;94995.63;5129776;27;20625;-78
2023/03/01 10:29:47;;;;;;;1.88;1.23;;;;;;;7.16;82.14;95014.34;5129328;28;20232;-76
2023/03/01 10:32:13;;;;;;;1.45;1.05;;;;;;;7.32;82.75;95005.69;5139185;27;20248;-79
2023/03/01 10:34:40;;;;;;;1.83;1.33;;;;;;;7.63;81.84;94997.81;5143276;27;20621;-79
2023/03/01 10:37:14;;;;;;;2.50;1.77;;;;;;;7.72;80.94;95001.41;5129320;28;20212;-79
2023/03/01 10:39:57;;;;;;;4.72;1.67;;;;;;;7.87;80.35;94991.41;5143089;27;20613;-75
2023/03/01 10:42:29;;;;;;;2.90;1.77;;;;;;;7.93;80.26;94976.72;5143751;27;20200;-80
2023/03/01 10:45:15;;;;;;;2.40;1.70;;;;;;;7.68;80.43;94988.81;5137426;27;20184;-79
2023/03/01 10:47:41;;;;;;;1.70;1.23;;;;;;;7.75;80.47;94984.63;5146374;27;20257;-76
2023/03/01 10:50:20;;;;;;;2.20;1.42;;;;;;;7.77;80.10;94990.53;5129409;28;20228;-74
2023/03/01 10:52:59;;;;;;;2.15;1.65;;;;;;;8.01;79.32;94993.00;5143994;27;20257;-77
2023/03/01 10:55:31;;;;;;;4.30;1.25;;;;;;;7.83;79.59;94986.63;5142727;27;20192;-79
2023/03/01 10:58:10;;;;;;;4.85;1.35;;;;;;;8.02;78.93;94993.81;5129801;28;20197;-77
2023/03/01 11:00:47;;;;;;;1.17;1.02;;;;;;;8.07;79.09;94990.97;5147242;27;20200;-77
2023/03/01 11:03:17;;;;;;;2.50;1.70;;;;;;;8.04;78.91;95002.41;5145107;27;20639;-78
2023/03/01 11:06:00;;;;;;;1.83;1.20;;;;;;;7.97;79.08;94992.00;5140160;27;20200;-77
2023/03/01 11:08:42;;;;;;;1.98;1.20;;;;;;;8.25;78.33;94986.56;5140044;27;20611;-78
2023/03/01 11:11:24;;;;;;;3.05;1.77;;;;;;;7.90;79.52;94978.13;5154793;27;20252;-76
2023/03/01 11:13:57;;;;;;;2.38;1.63;;;;;;;7.71;80.23;94999.81;5139893;27;20513;-80
2023/03/01 11:16:27;;;;;;;2.08;1.25;;;;;;;7.77;80.07;94982.44;5141464;27;20189;-79
2023/03/01 11:19:05;;;;;;;3.45;2.00;;;;;;;8.19;79.27;94993.97;5147550;27;20193;-78
2023/03/01 11:21:35;;;;;;;2.53;1.15;;;;;;;8.04;78.58;94987.00;5147172;27;20250;-76
2023/03/01 11:24:07;;;;;;;2.60;1.63;;;;;;;8.10;78.62;94987.69;5141305;27;20265;-76
2023/03/01 11:26:39;;;;;;;3.65;1.67;;;;;;;7.71;80.15;94999.81;5141504;27;20673;-78
2023/03/01 11:29:13;;;;;;;1.83;1.48;;;;;;;7.43;81.65;94993.63;5143151;27;20213;-78
2023/03/01 11:31:42;;;;;;;3.22;1.80;;;;;;;7.43;81.78;95001.69;5138765;27;20191;-78
2023/03/01 11:34:13;;;;;;;1.20;1.10;;;;;;;7.50;81.42;94993.22;5149909;27;20539;-79
2023/03/01 11:36:45;;;;;;;3.30;1.40;;;;;;;7.74;81.09;94993.81;5147692;27;20189;-77
2023/03/01 11:39:23;;;;;;;1.75;1.17;;;;;;;7.69;81.70;94980.44;5132418;27;20189;-76
2023/03/01 11:41:53;;;;;;;2.15;1.50;;;;;;;8.04;80.05;94975.41;5141474;27;20204;-78
2023/03/01 11:44:26;;;;;;;3.33;1.65;;;;;;;8.19;79.59;94967.00;5137978;27;20289;-77
2023/03/01 11:47:17;;;;;;;1.83;1.35;;;;;;;8.16;79.15;94964.91;5134428;27;20196;-76